createdAt,value
2019-03-31T00:01:41.583Z,50.50
2019-03-31T00:04:11.538Z,54.37
2019-03-31T00:06:43.844Z,57.73
2019-03-31T00:09:14.153Z,57.27
2019-03-31T00:11:46.002Z,58.97
2019-03-31T00:14:16.317Z,61.80
2019-03-31T00:16:46.294Z,61.57
2019-03-31T00:19:18.148Z,60.20
2019-03-31T00:21:48.154Z,61.50
2019-03-31T00:24:19.697Z,61.77
2019-03-31T00:26:50.839Z,61.37
2019-03-31T00:29:21.139Z,60.00
2019-03-31T00:31:51.054Z,58.73
2019-03-31T00:34:21.154Z,60.77
2019-03-31T00:36:51.204Z,61.70
2019-03-31T00:39:22.424Z,62.73
2019-03-31T00:41:52.480Z,57.50
2019-03-31T00:44:22.449Z,61.47
2019-03-31T00:46:54.273Z,58.57
2019-03-31T00:49:24.190Z,58.90
2019-03-31T00:51:54.225Z,59.60
2019-03-31T00:54:27.781Z,56.63
2019-03-31T00:56:57.815Z,62.40
2019-03-31T00:59:27.943Z,61.30
2019-03-31T01:02:01.783Z,62.03
2019-03-31T01:04:33.491Z,58.80
2019-03-31T01:07:04.412Z,59.20
2019-03-31T01:09:35.240Z,61.67
2019-03-31T01:12:06.026Z,61.60
2019-03-31T01:14:36.480Z,60.27
2019-03-31T01:17:09.996Z,61.30
2019-03-31T01:19:40.357Z,59.90
2019-03-31T01:22:11.659Z,61.33
2019-03-31T01:24:43.041Z,64.27
2019-03-31T01:27:13.866Z,64.37
2019-03-31T01:29:43.830Z,64.80
2019-03-31T01:32:13.859Z,63.60
2019-03-31T01:34:43.782Z,64.00
2019-03-31T01:37:13.758Z,64.47
2019-03-31T01:39:43.836Z,63.97
2019-03-31T01:42:13.858Z,65.07
2019-03-31T01:44:43.871Z,63.87
2019-03-31T01:47:13.805Z,64.10
2019-03-31T01:49:43.808Z,63.57
2019-03-31T01:52:15.313Z,66.43
2019-03-31T01:54:45.326Z,62.60
2019-03-31T01:57:15.315Z,63.93
2019-03-31T01:59:45.226Z,63.17
2019-03-31T02:02:25.490Z,60.17
2019-03-31T02:04:56.160Z,57.50
2019-03-31T02:07:26.061Z,60.03
2019-03-31T02:09:56.357Z,58.27
2019-03-31T02:12:26.258Z,58.00
2019-03-31T02:14:57.711Z,57.93
2019-03-31T02:17:29.562Z,57.90
2019-03-31T02:19:59.552Z,56.10
2019-03-31T02:22:29.476Z,57.93
2019-03-31T02:24:59.518Z,57.03
2019-03-31T02:27:29.383Z,59.73
2019-03-31T02:30:01.114Z,58.77
2019-03-31T02:32:31.117Z,57.37
2019-03-31T02:35:01.169Z,57.33
2019-03-31T02:37:32.781Z,57.93
2019-03-31T02:40:03.318Z,57.00
2019-03-31T02:42:33.338Z,58.70
2019-03-31T02:45:04.705Z,61.20
2019-03-31T02:47:34.742Z,58.93
2019-03-31T02:50:06.498Z,60.67
2019-03-31T02:52:36.403Z,59.43
2019-03-31T02:55:06.752Z,59.87
2019-03-31T02:57:37.277Z,61.20
2019-03-31T03:00:07.491Z,61.47
2019-03-31T03:02:42.467Z,60.03
2019-03-31T03:05:19.699Z,59.13
2019-03-31T03:07:47.240Z,58.80
2019-03-31T03:10:18.696Z,60.37
2019-03-31T03:12:51.593Z,57.90
2019-03-31T03:15:28.377Z,57.70
2019-03-31T03:17:58.400Z,60.20
2019-03-31T03:20:28.302Z,58.93
2019-03-31T03:22:58.278Z,59.23
2019-03-31T03:25:28.243Z,56.90
2019-03-31T03:27:58.197Z,56.53
2019-03-31T03:30:28.153Z,55.37
2019-03-31T03:33:14.601Z,55.90
2019-03-31T03:35:30.246Z,56.43
2019-03-31T03:38:00.257Z,55.73
2019-03-31T03:40:30.394Z,55.33
2019-03-31T03:43:02.040Z,56.97
2019-03-31T03:45:32.044Z,59.13
2019-03-31T03:48:02.460Z,60.70
2019-03-31T03:50:32.654Z,60.33
2019-03-31T03:53:02.677Z,59.30
2019-03-31T03:55:32.784Z,57.23
2019-03-31T03:58:02.887Z,61.80
2019-03-31T04:00:33.015Z,60.23
2019-03-31T04:03:03.008Z,60.57
2019-03-31T04:05:33.037Z,60.97
2019-03-31T04:08:04.218Z,61.37
2019-03-31T04:11:15.012Z,60.47
2019-03-31T04:13:45.106Z,60.53
2019-03-31T04:16:16.399Z,66.57
2019-03-31T04:18:46.705Z,65.47
2019-03-31T04:21:16.764Z,62.17
2019-03-31T04:23:46.768Z,63.17
2019-03-31T04:26:16.750Z,65.53
2019-03-31T04:28:46.949Z,65.67
2019-03-31T04:31:17.265Z,67.27
2019-03-31T04:33:52.163Z,64.67
2019-03-31T04:36:19.545Z,65.67
2019-03-31T04:38:49.737Z,66.37
2019-03-31T04:41:19.924Z,68.53
2019-03-31T04:43:49.930Z,65.53
2019-03-31T04:46:19.953Z,63.73
2019-03-31T04:48:49.989Z,67.10
2019-03-31T04:51:19.924Z,66.13
2019-03-31T04:53:49.920Z,70.23
2019-03-31T04:56:20.958Z,66.43
2019-03-31T04:58:51.001Z,66.03
2019-03-31T05:01:22.312Z,70.47
2019-03-31T05:04:04.381Z,67.27
2019-03-31T05:06:25.988Z,65.00
2019-03-31T05:08:55.985Z,61.23
2019-03-31T05:11:26.520Z,58.83
2019-03-31T05:13:56.438Z,57.77
2019-03-31T05:16:27.829Z,61.33
2019-03-31T05:18:57.796Z,61.83
2019-03-31T05:21:27.873Z,61.50
2019-03-31T05:23:57.889Z,62.23
2019-03-31T05:26:27.852Z,59.83
2019-03-31T05:28:57.756Z,62.07
2019-03-31T05:31:27.738Z,59.53
2019-03-31T05:33:57.764Z,59.00
2019-03-31T05:36:27.691Z,58.57
2019-03-31T05:38:57.611Z,60.10
2019-03-31T05:41:27.734Z,57.60
2019-03-31T05:44:05.462Z,55.93
2019-03-31T05:46:29.351Z,53.53
2019-03-31T05:48:59.320Z,52.23
2019-03-31T05:51:29.297Z,50.60
2019-03-31T05:53:59.157Z,45.40
2019-03-31T05:56:29.425Z,46.43
2019-03-31T05:58:59.519Z,45.60
2019-03-31T06:01:29.510Z,46.73
2019-03-31T06:03:59.561Z,42.27
2019-03-31T06:06:29.511Z,39.40
2019-03-31T06:08:59.407Z,40.77
2019-03-31T06:11:29.374Z,41.70
2019-03-31T06:13:59.814Z,41.77
2019-03-31T06:16:29.742Z,45.23
2019-03-31T06:18:59.819Z,45.67
2019-03-31T06:21:29.762Z,44.60
2019-03-31T06:23:59.674Z,42.80
2019-03-31T06:26:29.626Z,40.73
2019-03-31T06:28:59.540Z,44.07
2019-03-31T06:31:29.517Z,40.53
2019-03-31T06:33:59.461Z,38.67
2019-03-31T06:36:29.368Z,40.60
2019-03-31T06:38:59.287Z,37.37
2019-03-31T06:41:29.617Z,35.87
2019-03-31T06:43:59.504Z,36.67
2019-03-31T06:46:29.452Z,32.07
2019-03-31T06:48:59.479Z,32.50
2019-03-31T06:51:29.469Z,34.27
2019-03-31T06:53:59.369Z,33.57
2019-03-31T06:56:29.433Z,34.87
2019-03-31T06:58:59.455Z,28.33
2019-03-31T07:01:29.451Z,29.47
2019-03-31T07:03:59.516Z,31.33
2019-03-31T07:06:29.530Z,29.43
2019-03-31T07:08:59.553Z,30.90
2019-03-31T07:11:29.511Z,28.70
2019-03-31T07:13:59.500Z,28.50
2019-03-31T07:16:30.166Z,28.73
2019-03-31T07:19:00.134Z,26.53
2019-03-31T07:21:30.148Z,21.13
2019-03-31T07:24:00.167Z,25.53
2019-03-31T07:26:31.967Z,23.27
2019-03-31T07:29:02.023Z,26.30
2019-03-31T07:31:33.821Z,25.97
2019-03-31T07:34:05.948Z,16.17
2019-03-31T07:36:37.150Z,24.97
2019-03-31T07:39:08.145Z,23.10
2019-03-31T07:41:38.194Z,21.93
2019-03-31T07:44:08.370Z,22.70
2019-03-31T07:46:39.713Z,22.07
2019-03-31T07:49:11.097Z,21.07
2019-03-31T07:51:41.093Z,20.20
2019-03-31T07:54:11.185Z,14.23
2019-03-31T07:56:41.637Z,19.47
2019-03-31T07:59:11.688Z,19.00
2019-03-31T08:01:41.666Z,14.10
2019-03-31T08:04:11.625Z,19.57
2019-03-31T08:06:41.724Z,19.10
2019-03-31T08:09:11.692Z,14.70
2019-03-31T08:11:42.089Z,18.43
2019-03-31T08:14:12.139Z,15.63
2019-03-31T08:16:42.632Z,18.77
2019-03-31T08:19:12.581Z,15.23
2019-03-31T08:21:42.612Z,12.90
2019-03-31T08:24:14.104Z,17.20
2019-03-31T08:26:44.099Z,18.17
2019-03-31T08:29:14.005Z,17.30
2019-03-31T08:31:43.929Z,17.03
2019-03-31T08:34:13.935Z,13.00
2019-03-31T08:36:43.956Z,18.53
2019-03-31T08:39:13.919Z,18.70
2019-03-31T08:41:43.852Z,18.47
2019-03-31T08:44:13.766Z,14.87
2019-03-31T08:46:43.717Z,20.60
2019-03-31T08:49:15.150Z,16.30
2019-03-31T08:51:45.193Z,17.60
2019-03-31T08:54:17.106Z,20.83
2019-03-31T08:56:47.579Z,19.80
2019-03-31T08:59:17.855Z,19.67
2019-03-31T09:01:49.074Z,16.37
2019-03-31T09:04:19.040Z,24.50
2019-03-31T09:06:48.986Z,20.83
2019-03-31T09:09:20.266Z,20.97
2019-03-31T09:11:50.270Z,19.50
2019-03-31T09:14:20.236Z,20.43
2019-03-31T09:16:50.378Z,14.20
2019-03-31T09:19:21.137Z,18.50
2019-03-31T09:21:51.046Z,23.90
2019-03-31T09:24:22.847Z,24.47
2019-03-31T09:26:52.794Z,16.13
2019-03-31T09:29:23.997Z,21.63
2019-03-31T09:31:54.159Z,24.03
2019-03-31T09:34:24.593Z,17.63
2019-03-31T09:36:55.772Z,15.77
2019-03-31T09:39:25.845Z,13.23
2019-03-31T09:41:55.818Z,22.60
2019-03-31T09:44:25.862Z,20.63
2019-03-31T09:46:55.866Z,17.73
2019-03-31T09:49:26.188Z,14.80
2019-03-31T09:51:56.177Z,23.77
2019-03-31T09:54:26.160Z,23.30
2019-03-31T09:56:56.212Z,18.03
2019-03-31T09:59:28.273Z,15.57
2019-03-31T10:01:58.399Z,13.77
2019-03-31T10:04:29.863Z,27.63
2019-03-31T10:07:01.100Z,25.10
2019-03-31T10:09:32.146Z,17.70
2019-03-31T10:12:02.180Z,21.40
2019-03-31T10:14:32.143Z,17.43
2019-03-31T10:17:02.128Z,28.10
2019-03-31T10:19:34.737Z,27.23
2019-03-31T10:22:04.780Z,16.90
2019-03-31T10:24:34.790Z,24.10
2019-03-31T10:27:05.989Z,27.50
2019-03-31T10:29:36.388Z,27.20
2019-03-31T10:32:07.532Z,17.30
2019-03-31T10:34:37.510Z,27.23
2019-03-31T10:37:07.620Z,23.90
2019-03-31T10:39:37.642Z,15.30
2019-03-31T10:42:07.655Z,29.60
2019-03-31T10:44:37.802Z,16.50
2019-03-31T10:47:09.282Z,28.60
2019-03-31T10:49:39.376Z,29.97
2019-03-31T10:52:10.956Z,20.10
2019-03-31T10:54:42.846Z,19.23
2019-03-31T10:57:12.831Z,24.30
2019-03-31T10:59:43.191Z,25.17
2019-03-31T11:02:13.196Z,24.40
2019-03-31T11:04:44.640Z,27.40
2019-03-31T11:07:14.861Z,22.27
2019-03-31T11:09:44.814Z,27.97
2019-03-31T11:12:14.948Z,27.40
2019-03-31T11:14:45.006Z,14.83
2019-03-31T11:17:14.989Z,30.23
2019-03-31T11:19:45.084Z,29.50
2019-03-31T11:22:39.448Z,20.30
2019-03-31T11:25:20.300Z,13.90
2019-03-31T11:27:43.916Z,16.10
2019-03-31T11:30:14.524Z,17.37
2019-03-31T11:32:44.669Z,23.30
2019-03-31T11:35:15.120Z,28.50
2019-03-31T11:37:45.304Z,29.20
2019-03-31T11:40:16.383Z,17.93
2019-03-31T11:42:48.247Z,15.50
2019-03-31T11:45:18.212Z,19.17
2019-03-31T11:47:48.213Z,22.30
2019-03-31T11:50:19.112Z,19.90
2019-03-31T11:52:49.128Z,16.20
2019-03-31T11:55:19.116Z,24.80
2019-03-31T11:57:49.292Z,25.20
2019-03-31T12:00:20.133Z,20.33
2019-03-31T12:02:50.081Z,20.57
2019-03-31T12:05:20.594Z,16.63
2019-03-31T12:07:52.508Z,24.33
2019-03-31T12:10:22.623Z,19.43
2019-03-31T12:12:52.672Z,24.53
2019-03-31T12:15:22.603Z,15.87
2019-03-31T12:17:52.521Z,20.63
2019-03-31T12:20:25.745Z,19.63
2019-03-31T12:22:56.158Z,25.73
2019-03-31T12:25:26.106Z,20.63
2019-03-31T12:27:56.263Z,20.60
2019-03-31T12:30:30.493Z,22.33
2019-03-31T12:33:00.443Z,19.00
2019-03-31T12:35:30.445Z,23.93
2019-03-31T12:38:00.602Z,20.93
2019-03-31T12:40:35.154Z,21.20
2019-03-31T12:43:05.322Z,18.87
2019-03-31T12:45:35.418Z,19.33
2019-03-31T12:48:05.404Z,22.63
2019-03-31T12:50:35.396Z,20.30
2019-03-31T12:53:05.674Z,21.77
2019-03-31T12:55:37.991Z,22.37
2019-03-31T12:58:07.905Z,23.47
2019-03-31T13:00:39.825Z,23.10
2019-03-31T13:03:11.781Z,20.53
2019-03-31T13:05:42.910Z,19.37
2019-03-31T13:08:12.947Z,26.73
2019-03-31T13:10:43.115Z,24.30
2019-03-31T13:13:14.823Z,23.80
2019-03-31T13:15:45.063Z,20.07
2019-03-31T13:18:14.999Z,23.17
2019-03-31T13:20:45.136Z,21.73
2019-03-31T13:23:16.838Z,20.50
2019-03-31T13:25:46.857Z,21.70
2019-03-31T13:28:16.807Z,18.33
2019-03-31T13:30:47.035Z,25.57
2019-03-31T13:33:17.119Z,21.90
2019-03-31T13:35:47.265Z,22.67
2019-03-31T13:38:17.308Z,25.47
2019-03-31T13:40:50.528Z,23.43
2019-03-31T13:43:20.316Z,24.47
2019-03-31T13:45:51.688Z,19.20
2019-03-31T13:48:23.182Z,18.53
2019-03-31T13:50:53.309Z,23.10
2019-03-31T13:53:23.292Z,18.63
2019-03-31T13:55:53.275Z,16.63
2019-03-31T13:58:25.558Z,18.67
2019-03-31T14:00:57.340Z,15.13
2019-03-31T14:03:27.920Z,18.67
2019-03-31T14:06:01.511Z,15.97
2019-03-31T14:08:31.521Z,17.03
2019-03-31T14:11:01.496Z,17.00
2019-03-31T14:13:32.746Z,17.70
2019-03-31T14:16:02.852Z,16.37
2019-03-31T14:18:32.771Z,15.53
2019-03-31T14:21:04.759Z,14.70
2019-03-31T14:23:45.979Z,16.00
2019-03-31T14:26:17.937Z,21.53
2019-03-31T14:28:47.978Z,17.77
2019-03-31T14:31:18.053Z,23.90
2019-03-31T14:33:48.176Z,18.17
2019-03-31T14:36:19.711Z,23.13
2019-03-31T14:38:52.798Z,21.87
2019-03-31T14:41:24.618Z,20.23
2019-03-31T14:43:54.805Z,18.93
2019-03-31T14:46:26.223Z,24.63
2019-03-31T14:48:56.242Z,28.17
2019-03-31T14:51:26.412Z,29.27
2019-03-31T14:53:58.136Z,20.00
2019-03-31T14:56:29.521Z,19.07
2019-03-31T14:59:01.121Z,19.13
2019-03-31T15:01:31.061Z,19.87
2019-03-31T15:04:01.327Z,21.73
2019-03-31T15:06:31.343Z,21.20
2019-03-31T15:09:01.540Z,19.80
2019-03-31T15:11:31.562Z,19.60
2019-03-31T15:14:01.585Z,18.37
2019-03-31T15:16:33.613Z,19.10
2019-03-31T15:19:03.664Z,18.33
2019-03-31T15:21:33.771Z,19.60
2019-03-31T15:24:04.131Z,19.67
2019-03-31T15:26:34.558Z,18.07
2019-03-31T15:29:04.777Z,19.93
2019-03-31T15:31:34.763Z,18.80
2019-03-31T15:34:04.742Z,20.87
2019-03-31T15:36:34.738Z,21.13
2019-03-31T15:39:09.203Z,26.20
2019-03-31T15:41:38.703Z,30.37
2019-03-31T15:44:09.997Z,29.40
2019-03-31T15:46:39.989Z,25.53
2019-03-31T15:49:09.920Z,28.20
2019-03-31T15:51:41.353Z,20.53
2019-03-31T15:54:11.354Z,26.73
2019-03-31T15:56:41.401Z,28.20
2019-03-31T15:59:11.805Z,27.60
2019-03-31T16:01:41.812Z,25.20
2019-03-31T16:04:11.882Z,25.77
2019-03-31T16:06:44.974Z,27.20
2019-03-31T16:09:23.391Z,26.63
2019-03-31T16:11:53.616Z,23.47
2019-03-31T16:14:17.217Z,26.03
2019-03-31T16:16:46.588Z,24.33
2019-03-31T16:19:17.819Z,24.90
2019-03-31T16:21:47.299Z,26.43
2019-03-31T16:24:20.384Z,25.67
2019-03-31T16:26:52.862Z,26.73
2019-03-31T16:29:22.508Z,28.50
2019-03-31T16:31:51.946Z,24.47
2019-03-31T16:34:21.759Z,34.87
2019-03-31T16:36:52.269Z,35.13
2019-03-31T16:39:21.648Z,30.53
2019-03-31T16:41:51.107Z,33.13
2019-03-31T16:44:20.600Z,26.87
2019-03-31T16:46:50.131Z,27.20
2019-03-31T16:49:19.789Z,26.83
2019-03-31T16:51:51.001Z,27.70
2019-03-31T16:54:20.455Z,29.97
2019-03-31T16:56:51.367Z,30.37
2019-03-31T16:59:20.762Z,27.87
2019-03-31T17:01:50.290Z,19.10
2019-03-31T17:04:19.912Z,22.07
2019-03-31T17:06:49.288Z,26.80
2019-03-31T17:09:18.681Z,29.20
2019-03-31T17:11:48.131Z,26.63
2019-03-31T17:14:18.768Z,20.20
2019-03-31T17:16:48.172Z,28.73
2019-03-31T17:19:17.874Z,22.33
2019-03-31T17:21:47.353Z,30.27
2019-03-31T17:24:16.861Z,25.77
2019-03-31T17:26:46.344Z,25.37
2019-03-31T17:29:16.206Z,27.03
2019-03-31T17:31:45.670Z,35.27
2019-03-31T17:34:15.112Z,35.67
2019-03-31T17:36:44.526Z,35.77
2019-03-31T17:39:13.971Z,35.93
2019-03-31T17:41:43.851Z,34.93
2019-03-31T17:44:13.331Z,35.67
2019-03-31T17:46:42.830Z,34.17
2019-03-31T17:49:12.399Z,31.37
2019-03-31T17:51:42.910Z,31.87
2019-03-31T17:54:12.628Z,34.23
2019-03-31T17:56:42.143Z,31.73
2019-03-31T17:59:11.720Z,32.43
2019-03-31T18:01:42.380Z,29.33
2019-03-31T18:04:30.908Z,28.10
2019-03-31T18:07:01.643Z,27.87
2019-03-31T18:09:31.034Z,27.57
2019-03-31T18:12:00.597Z,24.10
2019-03-31T18:14:30.077Z,21.37
2019-03-31T18:17:00.610Z,21.53
2019-03-31T18:19:31.393Z,23.33
2019-03-31T18:22:15.613Z,21.93
2019-03-31T18:24:32.143Z,25.40
2019-03-31T18:27:02.006Z,25.13
2019-03-31T18:29:31.404Z,26.13
2019-03-31T18:32:01.101Z,26.43
2019-03-31T18:34:30.612Z,27.77
2019-03-31T18:37:00.103Z,28.00
2019-03-31T18:39:30.566Z,28.73
2019-03-31T18:42:01.005Z,27.83
2019-03-31T18:44:30.531Z,32.03
2019-03-31T18:46:59.910Z,30.53
2019-03-31T18:49:29.377Z,31.00
2019-03-31T18:51:58.738Z,30.70
2019-03-31T18:54:33.675Z,28.60
2019-03-31T18:57:35.520Z,32.87
2019-03-31T19:00:16.580Z,35.47
2019-03-31T19:02:52.709Z,35.10
2019-03-31T19:05:32.023Z,37.67
2019-03-31T19:08:26.197Z,34.80
2019-03-31T19:11:09.743Z,33.97
2019-03-31T19:14:02.065Z,31.73
2019-03-31T19:16:47.704Z,33.77
2019-03-31T19:19:34.746Z,33.43
2019-03-31T19:22:21.570Z,29.67
2019-03-31T19:25:08.852Z,27.40
2019-03-31T19:27:58.408Z,24.27
2019-03-31T19:30:55.678Z,19.73
2019-03-31T19:33:59.857Z,19.67
2019-03-31T19:36:51.045Z,19.93
2019-03-31T19:39:51.451Z,17.47
2019-03-31T19:42:46.912Z,18.10
2019-03-31T19:45:35.336Z,17.73
2019-03-31T19:48:38.923Z,17.97
2019-03-31T19:51:27.437Z,17.70
2019-03-31T19:54:03.781Z,18.23
2019-03-31T19:56:52.212Z,17.43
2019-03-31T19:59:33.421Z,16.50
2019-03-31T20:02:25.087Z,16.53
2019-03-31T20:05:01.723Z,14.10
2019-03-31T20:07:44.982Z,13.13
2019-03-31T20:10:33.800Z,13.50
2019-03-31T20:13:16.943Z,14.00
2019-03-31T20:15:54.820Z,14.83
2019-03-31T20:18:47.072Z,13.67
2019-03-31T20:21:32.374Z,13.43
2019-03-31T20:24:26.323Z,13.87
2019-03-31T20:27:09.426Z,15.87
2019-03-31T20:30:00.748Z,16.33
2019-03-31T20:32:57.404Z,18.00
2019-03-31T20:36:01.438Z,17.57
2019-03-31T20:38:45.433Z,17.90
2019-03-31T20:41:22.682Z,17.43
2019-03-31T20:43:56.314Z,17.70
2019-03-31T20:46:27.439Z,18.57
2019-03-31T20:48:58.035Z,19.27
2019-03-31T20:51:27.448Z,18.77
2019-03-31T20:53:57.261Z,19.40
2019-03-31T20:56:26.715Z,20.30
2019-03-31T20:58:56.110Z,19.27
2019-03-31T21:01:25.816Z,18.97
2019-03-31T21:03:55.421Z,19.53
2019-03-31T21:06:24.979Z,19.20
2019-03-31T21:08:54.518Z,19.37
2019-03-31T21:11:23.950Z,18.77
2019-03-31T21:13:56.792Z,20.07
2019-03-31T21:16:24.668Z,20.03
2019-03-31T21:18:54.214Z,20.90
2019-03-31T21:21:24.826Z,24.43
2019-03-31T21:23:54.679Z,23.50
2019-03-31T21:26:25.698Z,24.63
2019-03-31T21:28:55.262Z,24.50
2019-03-31T21:31:24.763Z,25.27
2019-03-31T21:33:54.109Z,26.77
2019-03-31T21:36:23.715Z,30.20
2019-03-31T21:38:53.209Z,29.10
2019-03-31T21:41:23.764Z,27.87
2019-03-31T21:43:53.444Z,29.23
2019-03-31T21:46:23.012Z,30.20
2019-03-31T21:48:52.400Z,31.30
2019-03-31T21:51:22.932Z,31.07
2019-03-31T21:53:53.500Z,29.37
2019-03-31T21:56:23.986Z,28.37
2019-03-31T21:58:53.553Z,30.57
2019-03-31T22:01:22.959Z,28.80
2019-03-31T22:03:52.305Z,27.23
2019-03-31T22:06:21.736Z,27.40
2019-03-31T22:08:52.388Z,27.23
2019-03-31T22:11:21.960Z,28.47
2019-03-31T22:13:51.448Z,28.13
2019-03-31T22:16:22.672Z,28.57
2019-03-31T22:18:52.120Z,28.50
2019-03-31T22:21:22.614Z,29.67
2019-03-31T22:23:58.008Z,28.97
2019-03-31T22:26:23.383Z,28.47
2019-03-31T22:28:52.896Z,29.60
2019-03-31T22:31:22.686Z,31.37
2019-03-31T22:33:53.776Z,29.67
2019-03-31T22:36:23.614Z,30.50
2019-03-31T22:38:54.919Z,30.93
2019-03-31T22:41:24.389Z,30.80
2019-03-31T22:43:53.820Z,31.57
2019-03-31T22:46:23.347Z,33.87
2019-03-31T22:48:54.447Z,32.23
2019-03-31T22:51:23.883Z,33.37
2019-03-31T22:53:55.218Z,34.93
2019-03-31T22:56:24.661Z,37.30
2019-03-31T22:58:54.080Z,36.53
2019-03-31T23:01:23.519Z,37.77
2019-03-31T23:03:52.961Z,38.57
2019-03-31T23:06:22.631Z,40.07
2019-03-31T23:08:52.358Z,40.70
2019-03-31T23:11:21.808Z,38.93
2019-03-31T23:13:51.342Z,38.60
2019-03-31T23:16:20.885Z,39.17
2019-03-31T23:18:50.293Z,41.90
2019-03-31T23:21:19.808Z,43.33
2019-03-31T23:23:49.398Z,44.40
2019-03-31T23:26:18.767Z,44.63
2019-03-31T23:28:49.320Z,44.73
2019-03-31T23:31:20.457Z,44.80
2019-03-31T23:33:49.923Z,46.83
2019-03-31T23:36:19.292Z,48.07
2019-03-31T23:38:48.747Z,48.97
2019-03-31T23:41:19.446Z,49.00
2019-03-31T23:43:48.851Z,48.50
2019-03-31T23:46:20.246Z,49.40
2019-03-31T23:48:50.764Z,49.47
2019-03-31T23:51:21.484Z,49.73
2019-03-31T23:53:51.293Z,53.67
2019-03-31T23:56:22.505Z,52.17
2019-03-31T23:58:51.933Z,54.33
